sensor_id;sensor_type;location;lat;lon;timestamp;temperature;humidity
14097;DHT22;7125;48.106;11.544;2023-11-19T00:00:29;4.40;99.90
14097;DHT22;7125;48.106;11.544;2023-11-19T00:02:56;4.40;99.90
14097;DHT22;7125;48.106;11.544;2023-11-19T00:05:24;4.40;99.90
14097;DHT22;7125;48.106;11.544;2023-11-19T00:07:51;4.40;99.90
14097;DHT22;7125;48.106;11.544;2023-11-19T00:10:18;4.50;99.90
14097;DHT22;7125;48.106;11.544;2023-11-19T00:12:47;4.50;99.90
14097;DHT22;7125;48.106;11.544;2023-11-19T00:15:15;4.50;99.90
14097;DHT22;7125;48.106;11.544;2023-11-19T00:17:46;4.50;99.90
14097;DHT22;7125;48.106;11.544;2023-11-19T00:20:14;4.50;99.90
14097;DHT22;7125;48.106;11.544;2023-11-19T00:22:43;4.40;99.90
14097;DHT22;7125;48.106;11.544;2023-11-19T00:25:14;4.50;99.90
14097;DHT22;7125;48.106;11.544;2023-11-19T00:27:41;4.50;99.90
14097;DHT22;7125;48.106;11.544;2023-11-19T00:30:10;4.60;99.90
14097;DHT22;7125;48.106;11.544;2023-11-19T00:32:37;4.60;99.90
14097;DHT22;7125;48.106;11.544;2023-11-19T00:35:05;4.60;99.90
14097;DHT22;7125;48.106;11.544;2023-11-19T00:37:32;4.60;99.90
14097;DHT22;7125;48.106;11.544;2023-11-19T00:40:01;4.60;99.90
14097;DHT22;7125;48.106;11.544;2023-11-19T00:42:31;4.60;99.90
14097;DHT22;7125;48.106;11.544;2023-11-19T00:44:58;4.60;99.90
14097;DHT22;7125;48.106;11.544;2023-11-19T00:47:25;4.70;99.90
14097;DHT22;7125;48.106;11.544;2023-11-19T00:49:52;4.70;99.90
14097;DHT22;7125;48.106;11.544;2023-11-19T00:52:19;4.70;99.90
14097;DHT22;7125;48.106;11.544;2023-11-19T00:54:47;4.70;99.90
14097;DHT22;7125;48.106;11.544;2023-11-19T00:57:16;4.70;99.90
14097;DHT22;7125;48.106;11.544;2023-11-19T00:59:43;4.70;99.90
14097;DHT22;7125;48.106;11.544;2023-11-19T01:02:10;4.80;99.90
14097;DHT22;7125;48.106;11.544;2023-11-19T01:04:37;4.70;99.90
14097;DHT22;7125;48.106;11.544;2023-11-19T01:07:04;4.80;99.90
14097;DHT22;7125;48.106;11.544;2023-11-19T01:09:32;4.80;99.90
14097;DHT22;7125;48.106;11.544;2023-11-19T01:12:00;4.80;99.90
14097;DHT22;7125;48.106;11.544;2023-11-19T01:14:28;4.80;99.90
14097;DHT22;7125;48.106;11.544;2023-11-19T01:16:56;4.90;99.90
14097;DHT22;7125;48.106;11.544;2023-11-19T01:19:23;4.90;99.90
14097;DHT22;7125;48.106;11.544;2023-11-19T01:21:51;5.00;99.90
14097;DHT22;7125;48.106;11.544;2023-11-19T01:24:18;5.00;99.90
14097;DHT22;7125;48.106;11.544;2023-11-19T01:26:46;5.00;99.90
14097;DHT22;7125;48.106;11.544;2023-11-19T01:29:15;5.10;99.90
14097;DHT22;7125;48.106;11.544;2023-11-19T01:31:45;5.00;99.90
14097;DHT22;7125;48.106;11.544;2023-11-19T01:34:12;5.00;99.90
14097;DHT22;7125;48.106;11.544;2023-11-19T01:36:39;5.10;99.90
14097;DHT22;7125;48.106;11.544;2023-11-19T01:39:05;5.10;99.90
14097;DHT22;7125;48.106;11.544;2023-11-19T01:41:34;5.10;99.90
14097;DHT22;7125;48.106;11.544;2023-11-19T01:44:01;5.10;99.90
14097;DHT22;7125;48.106;11.544;2023-11-19T01:46:29;5.10;99.90
14097;DHT22;7125;48.106;11.544;2023-11-19T01:49:00;5.20;99.90
14097;DHT22;7125;48.106;11.544;2023-11-19T01:51:27;5.20;99.90
14097;DHT22;7125;48.106;11.544;2023-11-19T01:53:55;5.30;99.90
14097;DHT22;7125;48.106;11.544;2023-11-19T01:56:24;5.30;99.90
14097;DHT22;7125;48.106;11.544;2023-11-19T01:58:54;5.30;99.90
14097;DHT22;7125;48.106;11.544;2023-11-19T02:01:21;5.30;99.90
14097;DHT22;7125;48.106;11.544;2023-11-19T02:03:48;5.30;99.90
14097;DHT22;7125;48.106;11.544;2023-11-19T02:06:17;5.40;99.90
14097;DHT22;7125;48.106;11.544;2023-11-19T02:08:44;5.40;99.90
14097;DHT22;7125;48.106;11.544;2023-11-19T02:11:11;5.40;99.90
14097;DHT22;7125;48.106;11.544;2023-11-19T02:13:38;5.40;99.90
14097;DHT22;7125;48.106;11.544;2023-11-19T02:16:07;5.50;99.90
14097;DHT22;7125;48.106;11.544;2023-11-19T02:18:35;5.50;99.90
14097;DHT22;7125;48.106;11.544;2023-11-19T02:21:02;5.60;99.90
14097;DHT22;7125;48.106;11.544;2023-11-19T02:23:32;5.60;99.90
14097;DHT22;7125;48.106;11.544;2023-11-19T02:26:09;5.60;99.90
14097;DHT22;7125;48.106;11.544;2023-11-19T02:28:41;5.70;99.90
14097;DHT22;7125;48.106;11.544;2023-11-19T02:31:09;5.70;99.90
14097;DHT22;7125;48.106;11.544;2023-11-19T02:33:36;5.70;99.90
14097;DHT22;7125;48.106;11.544;2023-11-19T02:36:03;5.80;99.90
14097;DHT22;7125;48.106;11.544;2023-11-19T02:38:30;5.80;99.90
14097;DHT22;7125;48.106;11.544;2023-11-19T02:40:57;5.90;99.90
14097;DHT22;7125;48.106;11.544;2023-11-19T02:43:24;5.90;99.90
14097;DHT22;7125;48.106;11.544;2023-11-19T02:45:52;5.90;99.90
14097;DHT22;7125;48.106;11.544;2023-11-19T02:48:21;5.90;99.90
14097;DHT22;7125;48.106;11.544;2023-11-19T02:50:48;6.00;99.90
14097;DHT22;7125;48.106;11.544;2023-11-19T02:53:15;6.00;99.90
14097;DHT22;7125;48.106;11.544;2023-11-19T02:55:44;6.00;99.90
14097;DHT22;7125;48.106;11.544;2023-11-19T02:58:15;6.10;99.90
14097;DHT22;7125;48.106;11.544;2023-11-19T03:00:49;6.10;99.90
14097;DHT22;7125;48.106;11.544;2023-11-19T03:03:24;6.10;99.90
14097;DHT22;7125;48.106;11.544;2023-11-19T03:05:56;6.20;99.90
14097;DHT22;7125;48.106;11.544;2023-11-19T03:08:23;6.20;99.90
14097;DHT22;7125;48.106;11.544;2023-11-19T03:10:50;6.20;99.90
14097;DHT22;7125;48.106;11.544;2023-11-19T03:13:17;6.20;99.90
14097;DHT22;7125;48.106;11.544;2023-11-19T03:15:44;6.20;99.90
14097;DHT22;7125;48.106;11.544;2023-11-19T03:18:11;6.20;99.90
14097;DHT22;7125;48.106;11.544;2023-11-19T03:20:39;6.20;99.90
14097;DHT22;7125;48.106;11.544;2023-11-19T03:23:06;6.20;99.90
14097;DHT22;7125;48.106;11.544;2023-11-19T03:25:34;6.20;99.90
14097;DHT22;7125;48.106;11.544;2023-11-19T03:28:02;6.20;99.90
14097;DHT22;7125;48.106;11.544;2023-11-19T03:30:29;6.20;99.90
14097;DHT22;7125;48.106;11.544;2023-11-19T03:32:58;6.20;99.90
14097;DHT22;7125;48.106;11.544;2023-11-19T03:35:25;6.20;99.90
14097;DHT22;7125;48.106;11.544;2023-11-19T03:37:55;6.20;99.90
14097;DHT22;7125;48.106;11.544;2023-11-19T03:40:22;6.30;99.90
14097;DHT22;7125;48.106;11.544;2023-11-19T03:42:49;6.30;99.90
14097;DHT22;7125;48.106;11.544;2023-11-19T03:45:16;6.30;99.90
14097;DHT22;7125;48.106;11.544;2023-11-19T03:47:43;6.30;99.90
14097;DHT22;7125;48.106;11.544;2023-11-19T03:50:10;6.30;99.90
14097;DHT22;7125;48.106;11.544;2023-11-19T03:52:37;6.30;99.90
14097;DHT22;7125;48.106;11.544;2023-11-19T03:55:06;6.30;99.90
14097;DHT22;7125;48.106;11.544;2023-11-19T03:57:34;6.30;99.90
14097;DHT22;7125;48.106;11.544;2023-11-19T04:00:01;6.40;99.90
14097;DHT22;7125;48.106;11.544;2023-11-19T04:02:38;6.40;99.90
14097;DHT22;7125;48.106;11.544;2023-11-19T04:05:06;6.40;99.90
14097;DHT22;7125;48.106;11.544;2023-11-19T04:07:33;6.40;99.90
14097;DHT22;7125;48.106;11.544;2023-11-19T04:10:00;6.40;99.90
14097;DHT22;7125;48.106;11.544;2023-11-19T04:12:29;6.40;99.90
14097;DHT22;7125;48.106;11.544;2023-11-19T04:14:56;6.50;99.90
14097;DHT22;7125;48.106;11.544;2023-11-19T04:17:23;6.50;99.90
14097;DHT22;7125;48.106;11.544;2023-11-19T04:19:50;6.50;99.90
14097;DHT22;7125;48.106;11.544;2023-11-19T04:22:17;6.50;99.90
14097;DHT22;7125;48.106;11.544;2023-11-19T04:24:44;6.60;99.90
14097;DHT22;7125;48.106;11.544;2023-11-19T04:27:11;6.60;99.90
14097;DHT22;7125;48.106;11.544;2023-11-19T04:29:41;6.60;99.90
14097;DHT22;7125;48.106;11.544;2023-11-19T04:32:07;6.70;99.90
14097;DHT22;7125;48.106;11.544;2023-11-19T04:34:34;6.70;99.90
14097;DHT22;7125;48.106;11.544;2023-11-19T04:37:03;6.80;99.90
14097;DHT22;7125;48.106;11.544;2023-11-19T04:39:30;6.90;99.90
14097;DHT22;7125;48.106;11.544;2023-11-19T04:41:57;7.10;99.90
14097;DHT22;7125;48.106;11.544;2023-11-19T04:44:25;7.40;99.90
14097;DHT22;7125;48.106;11.544;2023-11-19T04:46:53;7.70;99.90
14097;DHT22;7125;48.106;11.544;2023-11-19T04:49:20;7.90;99.90
14097;DHT22;7125;48.106;11.544;2023-11-19T04:51:47;8.10;99.90
14097;DHT22;7125;48.106;11.544;2023-11-19T04:54:14;8.20;99.90
14097;DHT22;7125;48.106;11.544;2023-11-19T04:56:45;8.40;99.90
14097;DHT22;7125;48.106;11.544;2023-11-19T04:59:12;8.60;99.90
14097;DHT22;7125;48.106;11.544;2023-11-19T05:01:39;8.80;99.90
14097;DHT22;7125;48.106;11.544;2023-11-19T05:04:07;8.90;99.90
14097;DHT22;7125;48.106;11.544;2023-11-19T05:06:34;8.90;99.90
14097;DHT22;7125;48.106;11.544;2023-11-19T05:09:01;9.10;99.90
14097;DHT22;7125;48.106;11.544;2023-11-19T05:11:30;9.20;99.90
14097;DHT22;7125;48.106;11.544;2023-11-19T05:13:57;9.20;99.90
14097;DHT22;7125;48.106;11.544;2023-11-19T05:16:24;9.20;99.90
14097;DHT22;7125;48.106;11.544;2023-11-19T05:18:51;9.30;99.90
14097;DHT22;7125;48.106;11.544;2023-11-19T05:21:20;9.30;99.90
14097;DHT22;7125;48.106;11.544;2023-11-19T05:23:47;9.30;99.90
14097;DHT22;7125;48.106;11.544;2023-11-19T05:26:18;9.30;99.90
14097;DHT22;7125;48.106;11.544;2023-11-19T05:28:45;9.30;99.90
14097;DHT22;7125;48.106;11.544;2023-11-19T05:31:12;9.30;99.90
14097;DHT22;7125;48.106;11.544;2023-11-19T05:33:39;9.30;99.90
14097;DHT22;7125;48.106;11.544;2023-11-19T05:36:07;9.30;99.90
14097;DHT22;7125;48.106;11.544;2023-11-19T05:38:36;9.30;99.90
14097;DHT22;7125;48.106;11.544;2023-11-19T05:41:03;9.30;99.90
14097;DHT22;7125;48.106;11.544;2023-11-19T05:43:30;9.30;99.90
14097;DHT22;7125;48.106;11.544;2023-11-19T05:45:57;9.30;99.90
14097;DHT22;7125;48.106;11.544;2023-11-19T05:48:26;9.40;99.90
14097;DHT22;7125;48.106;11.544;2023-11-19T05:50:54;9.40;99.90
14097;DHT22;7125;48.106;11.544;2023-11-19T05:53:21;9.30;99.90
14097;DHT22;7125;48.106;11.544;2023-11-19T05:55:49;9.30;99.90
14097;DHT22;7125;48.106;11.544;2023-11-19T05:58:23;9.30;99.90
14097;DHT22;7125;48.106;11.544;2023-11-19T06:00:50;9.30;99.90
14097;DHT22;7125;48.106;11.544;2023-11-19T06:03:17;9.40;99.90
14097;DHT22;7125;48.106;11.544;2023-11-19T06:05:44;9.40;99.90
14097;DHT22;7125;48.106;11.544;2023-11-19T06:08:11;9.40;99.90
14097;DHT22;7125;48.106;11.544;2023-11-19T06:10:38;9.40;99.90
14097;DHT22;7125;48.106;11.544;2023-11-19T06:13:07;9.40;99.90
14097;DHT22;7125;48.106;11.544;2023-11-19T06:15:36;9.40;99.90
14097;DHT22;7125;48.106;11.544;2023-11-19T06:18:03;9.50;99.90
14097;DHT22;7125;48.106;11.544;2023-11-19T06:20:31;9.50;99.90
14097;DHT22;7125;48.106;11.544;2023-11-19T06:22:59;9.50;99.90
14097;DHT22;7125;48.106;11.544;2023-11-19T06:25:26;9.50;99.90
14097;DHT22;7125;48.106;11.544;2023-11-19T06:27:53;9.50;99.90
14097;DHT22;7125;48.106;11.544;2023-11-19T06:30:21;9.50;99.90
14097;DHT22;7125;48.106;11.544;2023-11-19T06:32:48;9.50;99.90
14097;DHT22;7125;48.106;11.544;2023-11-19T06:35:15;9.50;99.90
14097;DHT22;7125;48.106;11.544;2023-11-19T06:37:43;9.50;99.90
14097;DHT22;7125;48.106;11.544;2023-11-19T06:40:10;9.50;99.90
14097;DHT22;7125;48.106;11.544;2023-11-19T06:42:38;9.50;99.90
14097;DHT22;7125;48.106;11.544;2023-11-19T06:45:06;9.60;99.90
14097;DHT22;7125;48.106;11.544;2023-11-19T06:47:34;9.50;99.90
14097;DHT22;7125;48.106;11.544;2023-11-19T06:50:01;9.60;99.90
14097;DHT22;7125;48.106;11.544;2023-11-19T06:52:31;9.60;99.90
14097;DHT22;7125;48.106;11.544;2023-11-19T06:54:58;9.60;99.90
14097;DHT22;7125;48.106;11.544;2023-11-19T06:57:25;9.70;99.90
14097;DHT22;7125;48.106;11.544;2023-11-19T06:59:53;9.60;99.90
14097;DHT22;7125;48.106;11.544;2023-11-19T07:02:20;9.70;99.90
14097;DHT22;7125;48.106;11.544;2023-11-19T07:04:49;9.70;99.90
14097;DHT22;7125;48.106;11.544;2023-11-19T07:07:16;9.70;99.90
14097;DHT22;7125;48.106;11.544;2023-11-19T07:09:42;9.80;99.90
14097;DHT22;7125;48.106;11.544;2023-11-19T07:12:09;9.80;99.90
14097;DHT22;7125;48.106;11.544;2023-11-19T07:14:36;9.80;99.90
14097;DHT22;7125;48.106;11.544;2023-11-19T07:17:04;9.80;99.90
14097;DHT22;7125;48.106;11.544;2023-11-19T07:19:31;9.80;99.90
14097;DHT22;7125;48.106;11.544;2023-11-19T07:22:00;9.80;99.90
14097;DHT22;7125;48.106;11.544;2023-11-19T07:24:26;9.80;99.90
14097;DHT22;7125;48.106;11.544;2023-11-19T07:26:54;9.90;99.90
14097;DHT22;7125;48.106;11.544;2023-11-19T07:29:21;9.90;99.90
14097;DHT22;7125;48.106;11.544;2023-11-19T07:31:48;10.00;99.90
14097;DHT22;7125;48.106;11.544;2023-11-19T07:34:15;10.10;99.90
14097;DHT22;7125;48.106;11.544;2023-11-19T07:36:42;10.10;99.90
14097;DHT22;7125;48.106;11.544;2023-11-19T07:39:10;10.20;99.90
14097;DHT22;7125;48.106;11.544;2023-11-19T07:41:37;10.20;99.90
14097;DHT22;7125;48.106;11.544;2023-11-19T07:44:05;10.20;99.90
14097;DHT22;7125;48.106;11.544;2023-11-19T07:46:32;10.20;99.90
14097;DHT22;7125;48.106;11.544;2023-11-19T07:48:59;10.20;99.90
14097;DHT22;7125;48.106;11.544;2023-11-19T07:51:28;10.20;99.90
14097;DHT22;7125;48.106;11.544;2023-11-19T07:53:55;10.20;99.90
14097;DHT22;7125;48.106;11.544;2023-11-19T07:56:23;10.20;99.90
14097;DHT22;7125;48.106;11.544;2023-11-19T07:58:50;10.30;99.90
14097;DHT22;7125;48.106;11.544;2023-11-19T08:01:17;10.30;99.90
14097;DHT22;7125;48.106;11.544;2023-11-19T08:03:44;10.30;99.90
14097;DHT22;7125;48.106;11.544;2023-11-19T08:06:11;10.30;99.90
14097;DHT22;7125;48.106;11.544;2023-11-19T08:08:38;10.30;99.90
14097;DHT22;7125;48.106;11.544;2023-11-19T08:11:05;10.30;99.90
14097;DHT22;7125;48.106;11.544;2023-11-19T08:13:34;10.30;99.90
14097;DHT22;7125;48.106;11.544;2023-11-19T08:16:01;10.30;99.90
14097;DHT22;7125;48.106;11.544;2023-11-19T08:18:28;10.40;99.90
14097;DHT22;7125;48.106;11.544;2023-11-19T08:20:54;10.40;99.90
14097;DHT22;7125;48.106;11.544;2023-11-19T08:23:23;10.50;99.90
14097;DHT22;7125;48.106;11.544;2023-11-19T08:25:51;10.50;99.90
14097;DHT22;7125;48.106;11.544;2023-11-19T08:28:18;10.50;99.90
14097;DHT22;7125;48.106;11.544;2023-11-19T08:30:47;10.60;99.90
14097;DHT22;7125;48.106;11.544;2023-11-19T08:33:14;10.70;99.90
14097;DHT22;7125;48.106;11.544;2023-11-19T08:35:41;10.70;99.90
14097;DHT22;7125;48.106;11.544;2023-11-19T08:38:08;10.70;99.90
14097;DHT22;7125;48.106;11.544;2023-11-19T08:40:35;10.70;99.90
14097;DHT22;7125;48.106;11.544;2023-11-19T08:43:01;10.80;99.90
14097;DHT22;7125;48.106;11.544;2023-11-19T08:45:28;10.80;99.90
14097;DHT22;7125;48.106;11.544;2023-11-19T08:47:57;10.80;99.90
14097;DHT22;7125;48.106;11.544;2023-11-19T08:50:24;10.80;99.90
14097;DHT22;7125;48.106;11.544;2023-11-19T08:52:50;10.90;99.90
14097;DHT22;7125;48.106;11.544;2023-11-19T08:55:18;10.90;99.90
14097;DHT22;7125;48.106;11.544;2023-11-19T08:57:44;11.00;99.90
14097;DHT22;7125;48.106;11.544;2023-11-19T09:00:12;11.00;99.90
14097;DHT22;7125;48.106;11.544;2023-11-19T09:02:40;11.10;99.90
14097;DHT22;7125;48.106;11.544;2023-11-19T09:05:10;11.10;99.90
14097;DHT22;7125;48.106;11.544;2023-11-19T09:07:38;11.10;99.90
14097;DHT22;7125;48.106;11.544;2023-11-19T09:10:05;11.20;99.90
14097;DHT22;7125;48.106;11.544;2023-11-19T09:12:34;11.10;99.90
14097;DHT22;7125;48.106;11.544;2023-11-19T09:15:01;11.10;99.90
14097;DHT22;7125;48.106;11.544;2023-11-19T09:17:28;11.10;99.90
14097;DHT22;7125;48.106;11.544;2023-11-19T09:19:55;11.10;99.90
14097;DHT22;7125;48.106;11.544;2023-11-19T09:22:23;11.20;99.90
14097;DHT22;7125;48.106;11.544;2023-11-19T09:24:50;11.20;99.90
14097;DHT22;7125;48.106;11.544;2023-11-19T09:27:17;11.20;99.90
14097;DHT22;7125;48.106;11.544;2023-11-19T09:29:44;11.20;99.90
14097;DHT22;7125;48.106;11.544;2023-11-19T09:32:12;11.20;99.90
14097;DHT22;7125;48.106;11.544;2023-11-19T09:34:39;11.30;99.90
14097;DHT22;7125;48.106;11.544;2023-11-19T09:37:06;11.30;99.90
14097;DHT22;7125;48.106;11.544;2023-11-19T09:39:34;11.40;99.90
14097;DHT22;7125;48.106;11.544;2023-11-19T09:42:01;11.40;99.90
14097;DHT22;7125;48.106;11.544;2023-11-19T09:44:28;11.40;99.90
14097;DHT22;7125;48.106;11.544;2023-11-19T09:46:57;11.40;99.90
14097;DHT22;7125;48.106;11.544;2023-11-19T09:49:25;11.40;99.90
14097;DHT22;7125;48.106;11.544;2023-11-19T09:51:53;11.30;99.90
14097;DHT22;7125;48.106;11.544;2023-11-19T09:54:20;11.30;99.90
14097;DHT22;7125;48.106;11.544;2023-11-19T09:56:48;11.40;99.90
14097;DHT22;7125;48.106;11.544;2023-11-19T09:59:16;11.40;99.90
14097;DHT22;7125;48.106;11.544;2023-11-19T10:01:45;11.50;99.90
14097;DHT22;7125;48.106;11.544;2023-11-19T10:04:15;11.50;99.90
14097;DHT22;7125;48.106;11.544;2023-11-19T10:06:42;11.70;99.90
14097;DHT22;7125;48.106;11.544;2023-11-19T10:09:11;11.70;99.90
14097;DHT22;7125;48.106;11.544;2023-11-19T10:11:38;11.80;99.90
14097;DHT22;7125;48.106;11.544;2023-11-19T10:14:06;11.90;99.90
14097;DHT22;7125;48.106;11.544;2023-11-19T10:16:34;11.90;99.90
14097;DHT22;7125;48.106;11.544;2023-11-19T10:19:01;12.00;99.90
14097;DHT22;7125;48.106;11.544;2023-11-19T10:21:29;12.00;99.90
14097;DHT22;7125;48.106;11.544;2023-11-19T10:23:59;12.10;99.90
14097;DHT22;7125;48.106;11.544;2023-11-19T10:26:27;12.00;99.90
14097;DHT22;7125;48.106;11.544;2023-11-19T10:28:55;12.00;99.90
14097;DHT22;7125;48.106;11.544;2023-11-19T10:31:23;12.00;99.90
14097;DHT22;7125;48.106;11.544;2023-11-19T10:33:52;12.00;99.90
14097;DHT22;7125;48.106;11.544;2023-11-19T10:36:19;12.10;99.90
14097;DHT22;7125;48.106;11.544;2023-11-19T10:38:53;12.20;99.90
14097;DHT22;7125;48.106;11.544;2023-11-19T10:41:27;12.20;99.90
14097;DHT22;7125;48.106;11.544;2023-11-19T10:43:54;12.20;99.90
14097;DHT22;7125;48.106;11.544;2023-11-19T10:46:21;12.30;99.90
14097;DHT22;7125;48.106;11.544;2023-11-19T10:48:50;12.40;99.90
14097;DHT22;7125;48.106;11.544;2023-11-19T10:51:19;12.50;99.90
14097;DHT22;7125;48.106;11.544;2023-11-19T10:53:49;12.50;99.90
14097;DHT22;7125;48.106;11.544;2023-11-19T10:56:20;12.50;99.90
14097;DHT22;7125;48.106;11.544;2023-11-19T10:58:52;12.60;99.90
14097;DHT22;7125;48.106;11.544;2023-11-19T11:01:22;12.70;99.90
14097;DHT22;7125;48.106;11.544;2023-11-19T11:03:53;12.70;99.90
14097;DHT22;7125;48.106;11.544;2023-11-19T11:06:22;12.70;99.90
14097;DHT22;7125;48.106;11.544;2023-11-19T11:08:51;12.70;99.90
14097;DHT22;7125;48.106;11.544;2023-11-19T11:11:18;12.80;99.90
14097;DHT22;7125;48.106;11.544;2023-11-19T11:13:47;12.80;99.90
14097;DHT22;7125;48.106;11.544;2023-11-19T11:16:15;12.80;99.90
14097;DHT22;7125;48.106;11.544;2023-11-19T11:18:45;12.90;99.90
14097;DHT22;7125;48.106;11.544;2023-11-19T11:21:20;13.00;99.90
14097;DHT22;7125;48.106;11.544;2023-11-19T11:24:15;13.20;99.90
14097;DHT22;7125;48.106;11.544;2023-11-19T11:26:59;13.20;99.90
14097;DHT22;7125;48.106;11.544;2023-11-19T11:29:37;13.20;99.90
14097;DHT22;7125;48.106;11.544;2023-11-19T11:32:15;13.20;99.90
14097;DHT22;7125;48.106;11.544;2023-11-19T11:34:53;13.30;99.90
14097;DHT22;7125;48.106;11.544;2023-11-19T11:37:32;13.40;99.90
14097;DHT22;7125;48.106;11.544;2023-11-19T11:40:00;13.30;99.90
14097;DHT22;7125;48.106;11.544;2023-11-19T11:42:34;13.30;99.90
14097;DHT22;7125;48.106;11.544;2023-11-19T11:45:03;13.20;99.90
14097;DHT22;7125;48.106;11.544;2023-11-19T11:48:08;13.20;99.90
14097;DHT22;7125;48.106;11.544;2023-11-19T11:50:50;13.10;99.90
14097;DHT22;7125;48.106;11.544;2023-11-19T11:53:20;13.20;99.90
14097;DHT22;7125;48.106;11.544;2023-11-19T11:55:56;13.10;99.90
14097;DHT22;7125;48.106;11.544;2023-11-19T11:58:30;13.10;99.90
14097;DHT22;7125;48.106;11.544;2023-11-19T12:00:58;13.10;99.90
14097;DHT22;7125;48.106;11.544;2023-11-19T12:03:28;13.10;99.90
14097;DHT22;7125;48.106;11.544;2023-11-19T12:05:56;13.10;99.90
14097;DHT22;7125;48.106;11.544;2023-11-19T12:08:29;13.20;99.90
14097;DHT22;7125;48.106;11.544;2023-11-19T12:10:59;13.20;99.90
14097;DHT22;7125;48.106;11.544;2023-11-19T12:13:52;13.20;99.90
14097;DHT22;7125;48.106;11.544;2023-11-19T12:16:19;13.20;99.90
14097;DHT22;7125;48.106;11.544;2023-11-19T12:18:47;13.20;99.90
14097;DHT22;7125;48.106;11.544;2023-11-19T12:21:28;13.30;99.90
14097;DHT22;7125;48.106;11.544;2023-11-19T12:23:58;13.30;99.90
14097;DHT22;7125;48.106;11.544;2023-11-19T12:26:47;13.30;99.90
14097;DHT22;7125;48.106;11.544;2023-11-19T12:29:18;13.30;99.90
14097;DHT22;7125;48.106;11.544;2023-11-19T12:31:53;13.30;99.90
14097;DHT22;7125;48.106;11.544;2023-11-19T12:34:21;13.30;99.90
14097;DHT22;7125;48.106;11.544;2023-11-19T12:36:49;13.30;99.90
14097;DHT22;7125;48.106;11.544;2023-11-19T12:39:17;13.30;99.90
14097;DHT22;7125;48.106;11.544;2023-11-19T12:41:52;13.40;99.90
14097;DHT22;7125;48.106;11.544;2023-11-19T12:44:20;13.40;99.90
14097;DHT22;7125;48.106;11.544;2023-11-19T12:46:58;13.50;99.90
14097;DHT22;7125;48.106;11.544;2023-11-19T12:49:26;13.40;99.90
14097;DHT22;7125;48.106;11.544;2023-11-19T12:51:53;13.40;99.90
14097;DHT22;7125;48.106;11.544;2023-11-19T12:54:32;13.40;99.90
14097;DHT22;7125;48.106;11.544;2023-11-19T12:56:58;13.50;99.90
14097;DHT22;7125;48.106;11.544;2023-11-19T12:59:25;13.50;99.90
14097;DHT22;7125;48.106;11.544;2023-11-19T13:01:56;13.50;99.90
14097;DHT22;7125;48.106;11.544;2023-11-19T13:04:27;13.50;99.90
14097;DHT22;7125;48.106;11.544;2023-11-19T13:06:56;13.50;99.90
14097;DHT22;7125;48.106;11.544;2023-11-19T13:09:25;13.40;99.90
14097;DHT22;7125;48.106;11.544;2023-11-19T13:11:53;13.40;99.90
14097;DHT22;7125;48.106;11.544;2023-11-19T13:14:20;13.40;99.90
14097;DHT22;7125;48.106;11.544;2023-11-19T13:16:47;13.50;99.90
14097;DHT22;7125;48.106;11.544;2023-11-19T13:19:15;13.60;99.90
14097;DHT22;7125;48.106;11.544;2023-11-19T13:21:44;13.70;99.90
14097;DHT22;7125;48.106;11.544;2023-11-19T13:24:12;13.70;99.90
14097;DHT22;7125;48.106;11.544;2023-11-19T13:26:41;13.70;99.90
14097;DHT22;7125;48.106;11.544;2023-11-19T13:29:08;13.80;99.90
14097;DHT22;7125;48.106;11.544;2023-11-19T13:31:36;13.80;99.90
14097;DHT22;7125;48.106;11.544;2023-11-19T13:34:03;13.80;99.90
14097;DHT22;7125;48.106;11.544;2023-11-19T13:36:32;13.90;99.90
14097;DHT22;7125;48.106;11.544;2023-11-19T13:38:59;13.90;99.90
14097;DHT22;7125;48.106;11.544;2023-11-19T13:41:26;13.90;99.90
14097;DHT22;7125;48.106;11.544;2023-11-19T13:43:55;13.90;99.90
14097;DHT22;7125;48.106;11.544;2023-11-19T13:46:22;13.80;99.90
14097;DHT22;7125;48.106;11.544;2023-11-19T13:48:49;13.80;99.90
14097;DHT22;7125;48.106;11.544;2023-11-19T13:51:16;13.70;99.90
14097;DHT22;7125;48.106;11.544;2023-11-19T13:53:43;13.60;99.90
14097;DHT22;7125;48.106;11.544;2023-11-19T13:56:10;13.50;99.90
14097;DHT22;7125;48.106;11.544;2023-11-19T13:58:37;13.50;99.90
14097;DHT22;7125;48.106;11.544;2023-11-19T14:01:07;13.40;99.90
14097;DHT22;7125;48.106;11.544;2023-11-19T14:03:35;13.30;99.90
14097;DHT22;7125;48.106;11.544;2023-11-19T14:06:03;13.30;99.90
14097;DHT22;7125;48.106;11.544;2023-11-19T14:08:30;13.30;99.90
14097;DHT22;7125;48.106;11.544;2023-11-19T14:10:57;13.20;99.90
14097;DHT22;7125;48.106;11.544;2023-11-19T14:13:24;13.20;99.90
14097;DHT22;7125;48.106;11.544;2023-11-19T14:15:51;13.20;99.90
14097;DHT22;7125;48.106;11.544;2023-11-19T14:18:20;13.10;99.90
14097;DHT22;7125;48.106;11.544;2023-11-19T14:20:47;13.20;99.90
14097;DHT22;7125;48.106;11.544;2023-11-19T14:23:14;13.10;99.90
14097;DHT22;7125;48.106;11.544;2023-11-19T14:25:41;13.20;99.90
14097;DHT22;7125;48.106;11.544;2023-11-19T14:28:09;13.20;99.90
14097;DHT22;7125;48.106;11.544;2023-11-19T14:30:36;13.30;99.90
14097;DHT22;7125;48.106;11.544;2023-11-19T14:33:04;13.30;99.90
14097;DHT22;7125;48.106;11.544;2023-11-19T14:35:32;13.30;99.90
14097;DHT22;7125;48.106;11.544;2023-11-19T14:37:59;13.30;99.90
14097;DHT22;7125;48.106;11.544;2023-11-19T14:40:30;13.30;99.90
14097;DHT22;7125;48.106;11.544;2023-11-19T14:42:58;13.30;99.90
14097;DHT22;7125;48.106;11.544;2023-11-19T14:45:25;13.30;99.90
14097;DHT22;7125;48.106;11.544;2023-11-19T14:47:52;13.30;99.90
14097;DHT22;7125;48.106;11.544;2023-11-19T14:50:20;13.20;99.90
14097;DHT22;7125;48.106;11.544;2023-11-19T14:52:48;13.20;99.90
14097;DHT22;7125;48.106;11.544;2023-11-19T14:55:16;13.10;99.90
14097;DHT22;7125;48.106;11.544;2023-11-19T14:57:43;13.00;99.90
14097;DHT22;7125;48.106;11.544;2023-11-19T15:00:11;12.90;99.90
14097;DHT22;7125;48.106;11.544;2023-11-19T15:02:39;12.80;99.90
14097;DHT22;7125;48.106;11.544;2023-11-19T15:05:08;12.80;99.90
14097;DHT22;7125;48.106;11.544;2023-11-19T15:07:36;12.70;99.90
14097;DHT22;7125;48.106;11.544;2023-11-19T15:10:06;12.60;99.90
14097;DHT22;7125;48.106;11.544;2023-11-19T15:12:37;12.50;99.90
14097;DHT22;7125;48.106;11.544;2023-11-19T15:15:07;12.50;99.90
14097;DHT22;7125;48.106;11.544;2023-11-19T15:17:35;12.40;99.90
14097;DHT22;7125;48.106;11.544;2023-11-19T15:20:03;12.30;99.90
14097;DHT22;7125;48.106;11.544;2023-11-19T15:22:30;12.30;99.90
14097;DHT22;7125;48.106;11.544;2023-11-19T15:24:57;12.20;99.90
14097;DHT22;7125;48.106;11.544;2023-11-19T15:27:25;12.10;99.90
14097;DHT22;7125;48.106;11.544;2023-11-19T15:29:52;12.00;99.90
14097;DHT22;7125;48.106;11.544;2023-11-19T15:32:19;11.90;99.90
14097;DHT22;7125;48.106;11.544;2023-11-19T15:34:46;11.80;99.90
14097;DHT22;7125;48.106;11.544;2023-11-19T15:37:14;11.70;99.90
14097;DHT22;7125;48.106;11.544;2023-11-19T15:39:41;11.60;99.90
14097;DHT22;7125;48.106;11.544;2023-11-19T15:42:08;11.50;99.90
14097;DHT22;7125;48.106;11.544;2023-11-19T15:44:38;11.50;99.90